Time;durP1;ratioP1;P1;durP2;ratioP2;P2;SDS_P1;SDS_P2;PMS_P1;PMS_P2;Temp;Humidity;BMP_temperature;BMP_pressure;BME280_temperature;BME280_humidity;BME280_pressure;Samples;Min_cycle;Max_cycle;Signal;HPM_P1;HPM_P2
2023/08/25 00:00:55;;;;;;;1999.90;999.90;;;20.40;99.90;;;;;;5088541;28;20036;-73
2023/08/25 00:03:20;;;;;;;1999.90;999.90;;;20.30;99.90;;;;;;5086627;28;20032;-73
2023/08/25 00:05:46;;;;;;;1999.90;999.90;;;20.20;99.90;;;;;;5090678;28;20114;-72
2023/08/25 00:08:11;;;;;;;1999.90;999.90;;;20.20;99.90;;;;;;5084513;28;20129;-73
2023/08/25 00:10:37;;;;;;;1999.90;999.90;;;20.10;99.90;;;;;;5081778;28;20028;-72
2023/08/25 00:13:03;;;;;;;1999.90;999.90;;;20.00;99.90;;;;;;5085668;28;20028;-72
2023/08/25 00:15:29;;;;;;;1999.90;999.90;;;20.00;99.90;;;;;;5083400;28;20501;-73
2023/08/25 00:17:54;;;;;;;1999.90;999.90;;;20.00;99.90;;;;;;5088896;28;20123;-73
2023/08/25 00:20:20;;;;;;;1999.90;999.90;;;19.90;99.90;;;;;;5089311;28;20036;-73
2023/08/25 00:22:46;;;;;;;1999.90;999.90;;;19.90;99.90;;;;;;5083153;28;20028;-73
2023/08/25 00:25:12;;;;;;;1999.90;999.90;;;20.00;99.90;;;;;;5087000;28;20669;-72
2023/08/25 00:27:38;;;;;;;1999.90;999.90;;;19.80;99.90;;;;;;5081677;28;20023;-73
2023/08/25 00:30:04;;;;;;;1999.90;999.90;;;19.90;99.90;;;;;;5085567;28;20482;-73
2023/08/25 00:32:30;;;;;;;1999.90;999.90;;;19.80;99.90;;;;;;5084226;28;20051;-72
2023/08/25 00:34:56;;;;;;;1999.90;999.90;;;19.80;99.90;;;;;;5063603;28;20032;-72
2023/08/25 00:37:22;;;;;;;1999.90;999.90;;;19.80;99.90;;;;;;5077895;28;20442;-72
2023/08/25 00:39:47;;;;;;;1999.90;999.90;;;19.60;99.90;;;;;;5078055;28;20036;-72
2023/08/25 00:42:13;;;;;;;1999.90;999.90;;;19.70;99.90;;;;;;5083621;28;20028;-73
2023/08/25 00:44:38;;;;;;;1999.90;999.90;;;19.70;99.90;;;;;;5088522;28;20078;-73
2023/08/25 00:47:05;;;;;;;1999.90;999.90;;;19.80;99.90;;;;;;5085320;28;20047;-72
2023/08/25 00:49:31;;;;;;;1999.90;999.90;;;19.70;99.90;;;;;;5086600;28;20506;-73
2023/08/25 00:51:59;;;;;;;1999.90;999.90;;;19.60;99.90;;;;;;5082720;28;20035;-73
2023/08/25 00:54:27;;;;;;;1999.90;999.90;;;19.70;99.90;;;;;;5089048;28;20052;-73
2023/08/25 00:56:53;;;;;;;1999.90;999.90;;;19.60;99.90;;;;;;5087755;28;20471;-72
2023/08/25 00:59:19;;;;;;;1999.90;999.90;;;19.40;99.90;;;;;;5086965;28;20108;-72
2023/08/25 01:01:45;;;;;;;1999.90;999.90;;;19.50;99.90;;;;;;5086577;28;20375;-72
2023/08/25 01:04:12;;;;;;;1999.90;999.90;;;19.40;99.90;;;;;;5094143;28;20024;-72
2023/08/25 01:06:39;;;;;;;1999.90;999.90;;;19.30;99.90;;;;;;5086735;28;20049;-72
2023/08/25 01:09:06;;;;;;;1999.90;999.90;;;19.10;99.90;;;;;;5091814;28;20036;-72
2023/08/25 01:11:59;;;;;;;1999.90;999.90;;;19.00;99.90;;;;;;5089879;28;20047;-72
2023/08/25 01:14:30;;;;;;;1999.90;999.90;;;18.80;99.90;;;;;;5090570;28;20082;-72
2023/08/25 01:17:32;;;;;;;1999.90;999.90;;;18.60;99.90;;;;;;5093744;28;20028;-72
2023/08/25 01:20:08;;;;;;;1999.90;999.90;;;18.40;99.90;;;;;;5048843;28;20035;-72
2023/08/25 01:23:15;;;;;;;1999.90;999.90;;;18.10;99.90;;;;;;5085203;28;20043;-72
2023/08/25 01:25:42;;;;;;;1999.90;999.90;;;18.00;99.90;;;;;;5088906;28;20052;-72
2023/08/25 01:28:07;;;;;;;1999.90;999.90;;;18.00;99.90;;;;;;5093103;28;20032;-72
2023/08/25 01:30:35;;;;;;;1999.90;999.90;;;17.90;99.90;;;;;;5092574;28;20317;-72
2023/08/25 01:33:03;;;;;;;1999.90;999.90;;;17.90;99.90;;;;;;5093005;28;20024;-72
2023/08/25 01:35:43;;;;;;;1999.90;999.90;;;17.80;99.90;;;;;;5092575;28;20560;-72
2023/08/25 01:38:12;;;;;;;1999.90;999.90;;;17.80;99.90;;;;;;5088263;28;20060;-72
2023/08/25 01:40:43;;;;;;;1999.90;999.90;;;17.70;99.90;;;;;;5085066;28;20024;-72
2023/08/25 01:43:11;;;;;;;1999.90;999.90;;;17.80;99.90;;;;;;5090694;28;20032;-73
2023/08/25 01:45:37;;;;;;;1999.90;999.90;;;17.70;99.90;;;;;;5091226;28;20032;-72
2023/08/25 01:48:06;;;;;;;1999.90;999.90;;;17.70;99.90;;;;;;5088884;28;20100;-72
2023/08/25 01:50:35;;;;;;;1999.90;999.90;;;17.60;99.90;;;;;;5090811;28;20110;-72
2023/08/25 01:53:02;;;;;;;1999.90;999.90;;;17.70;99.90;;;;;;5092399;28;20063;-72
2023/08/25 01:55:28;;;;;;;1999.90;999.90;;;17.60;99.90;;;;;;5087061;28;20084;-73
2023/08/25 01:57:54;;;;;;;1999.90;999.90;;;17.70;99.90;;;;;;5091309;28;20032;-72
2023/08/25 02:00:20;;;;;;;1999.90;999.90;;;17.70;99.90;;;;;;5088194;28;20031;-72
2023/08/25 02:02:46;;;;;;;1999.90;999.90;;;17.70;99.90;;;;;;5091827;28;20042;-72
2023/08/25 02:05:11;;;;;;;1999.90;999.90;;;17.70;99.90;;;;;;5092307;28;20060;-72
2023/08/25 02:07:37;;;;;;;1999.90;999.90;;;17.70;99.90;;;;;;5091590;28;20490;-71
2023/08/25 02:10:04;;;;;;;1999.90;999.90;;;17.80;99.90;;;;;;5090373;28;20035;-72
2023/08/25 02:12:29;;;;;;;1999.90;999.90;;;17.90;99.90;;;;;;5078273;28;20505;-72
2023/08/25 02:14:55;;;;;;;1999.90;999.90;;;17.90;99.90;;;;;;5091283;28;20047;-71
2023/08/25 02:17:21;;;;;;;1999.90;999.90;;;17.90;99.90;;;;;;5092348;28;20050;-72
2023/08/25 02:19:46;;;;;;;1999.90;999.90;;;17.90;99.90;;;;;;5089362;28;20031;-72
2023/08/25 02:22:12;;;;;;;1999.90;999.90;;;18.00;99.90;;;;;;5089656;28;20463;-71
2023/08/25 02:24:38;;;;;;;1999.90;999.90;;;18.00;99.90;;;;;;5090354;28;20093;-72
2023/08/25 02:27:04;;;;;;;1999.90;999.90;;;18.10;99.90;;;;;;5089264;28;20423;-71
2023/08/25 02:29:30;;;;;;;1999.90;999.90;;;18.10;99.90;;;;;;5090400;28;20027;-72
2023/08/25 02:31:55;;;;;;;1999.90;999.90;;;18.10;99.90;;;;;;5091726;28;20036;-72
2023/08/25 02:34:22;;;;;;;1999.90;999.90;;;18.30;99.90;;;;;;5085369;28;20530;-73
2023/08/25 02:36:47;;;;;;;1999.90;999.90;;;18.20;99.90;;;;;;5091774;28;20036;-72
2023/08/25 02:39:13;;;;;;;1999.90;999.90;;;18.30;99.90;;;;;;5089281;28;20090;-72
2023/08/25 02:41:39;;;;;;;1999.90;999.90;;;18.30;99.90;;;;;;5089957;28;20036;-72
2023/08/25 02:44:04;;;;;;;1999.90;999.90;;;18.30;99.90;;;;;;5087432;28;20481;-72
2023/08/25 02:46:30;;;;;;;1999.90;999.90;;;18.40;99.90;;;;;;5088330;28;20036;-72
2023/08/25 02:48:56;;;;;;;1999.90;999.90;;;18.40;99.90;;;;;;5091294;28;20032;-71
2023/08/25 02:51:21;;;;;;;1999.90;999.90;;;18.40;99.90;;;;;;5090869;28;20024;-72
2023/08/25 02:53:47;;;;;;;1999.90;999.90;;;18.40;99.90;;;;;;5090612;28;20046;-72
2023/08/25 02:56:13;;;;;;;1999.90;999.90;;;18.40;99.90;;;;;;5090637;28;20509;-71
2023/08/25 02:58:38;;;;;;;1999.90;999.90;;;18.40;99.90;;;;;;5089623;28;20504;-72
2023/08/25 03:01:13;;;;;;;1999.90;999.90;;;18.50;99.90;;;;;;5088788;28;20036;-72
2023/08/25 03:03:39;;;;;;;1999.90;999.90;;;18.60;99.90;;;;;;5091075;28;20055;-72
2023/08/25 03:06:05;;;;;;;1999.90;999.90;;;18.50;99.90;;;;;;5090889;28;20047;-71
2023/08/25 03:08:31;;;;;;;1999.90;999.90;;;18.50;99.90;;;;;;5088995;28;20381;-72
2023/08/25 03:10:57;;;;;;;1999.90;999.90;;;18.40;97.80;;;;;;5088654;28;20032;-72
2023/08/25 03:13:23;;;;;;;1999.90;999.90;;;18.50;97.60;;;;;;5088815;28;20066;-71
2023/08/25 03:15:50;;;;;;;1999.90;999.90;;;18.50;97.10;;;;;;5088982;28;20046;-72
2023/08/25 03:18:16;;;;;;;1999.90;999.90;;;18.40;96.70;;;;;;5090432;28;20101;-72
2023/08/25 03:20:41;;;;;;;1999.90;999.90;;;18.50;96.00;;;;;;5087056;28;20023;-72
2023/08/25 03:23:07;;;;;;;1999.90;999.90;;;18.50;96.00;;;;;;5091669;28;20024;-72
2023/08/25 03:25:37;;;;;;;1999.90;999.90;;;18.50;95.60;;;;;;5088111;28;20056;-72
2023/08/25 03:28:03;;;;;;;1999.90;999.90;;;18.50;95.60;;;;;;5090280;28;20036;-72
2023/08/25 03:30:29;;;;;;;1999.90;999.90;;;18.40;95.50;;;;;;5090435;28;20488;-72
2023/08/25 03:32:59;;;;;;;1999.90;999.90;;;18.30;95.70;;;;;;5087695;28;20031;-71
2023/08/25 03:35:25;;;;;;;1999.90;999.90;;;18.30;95.60;;;;;;5089350;28;20037;-72
2023/08/25 03:37:51;;;;;;;1999.90;999.90;;;18.50;95.10;;;;;;5087314;28;20449;-71
2023/08/25 03:40:19;;;;;;;1999.90;999.90;;;18.50;94.70;;;;;;5085283;28;20116;-72
2023/08/25 03:42:44;;;;;;;1999.90;999.90;;;18.50;94.40;;;;;;5089705;28;20024;-71
2023/08/25 03:45:10;;;;;;;1999.90;999.90;;;18.50;94.30;;;;;;5088888;28;20097;-71
2023/08/25 03:47:36;;;;;;;1999.90;999.90;;;18.70;93.70;;;;;;5085357;28;20032;-71
2023/08/25 03:50:01;;;;;;;1999.90;999.90;;;18.70;93.20;;;;;;5090463;28;20036;-71
2023/08/25 03:52:27;;;;;;;1999.90;999.90;;;18.70;92.90;;;;;;5082913;28;20029;-71
2023/08/25 03:54:53;;;;;;;1999.90;999.90;;;18.70;92.70;;;;;;5085064;28;20391;-71
2023/08/25 03:57:18;;;;;;;1999.90;999.90;;;18.80;92.10;;;;;;5090109;28;20482;-72
2023/08/25 03:59:44;;;;;;;1999.90;999.90;;;18.80;92.30;;;;;;5087664;28;20394;-72
2023/08/25 04:02:10;;;;;;;1999.90;999.90;;;18.70;92.20;;;;;;5085606;28;20043;-72
2023/08/25 04:04:35;;;;;;;1999.90;999.90;;;18.70;92.40;;;;;;5089774;28;20024;-72
2023/08/25 04:07:01;;;;;;;1999.90;999.90;;;18.70;92.50;;;;;;5088847;28;20023;-72
2023/08/25 04:09:27;;;;;;;1999.90;999.90;;;18.70;92.00;;;;;;5088531;28;20036;-72
2023/08/25 04:11:54;;;;;;;1999.90;999.90;;;18.70;91.70;;;;;;5087161;28;20032;-72
2023/08/25 04:14:20;;;;;;;1999.90;999.90;;;18.80;91.50;;;;;;5086311;28;20558;-72
2023/08/25 04:16:46;;;;;;;1999.90;999.90;;;18.80;91.40;;;;;;5089544;28;20036;-72
2023/08/25 04:19:13;;;;;;;1999.90;999.90;;;18.60;92.00;;;;;;5084915;28;20036;-72
2023/08/25 04:21:39;;;;;;;1999.90;999.90;;;18.70;92.00;;;;;;5087237;28;20032;-71
2023/08/25 04:24:05;;;;;;;1999.90;999.90;;;18.70;91.60;;;;;;5089463;28;20033;-72
2023/08/25 04:26:30;;;;;;;1999.90;999.90;;;18.80;91.50;;;;;;5081614;28;20059;-71
2023/08/25 04:28:56;;;;;;;1999.90;999.90;;;18.70;91.70;;;;;;5089333;28;20412;-72
2023/08/25 04:31:21;;;;;;;1999.90;999.90;;;18.80;91.00;;;;;;5089231;28;20406;-71
2023/08/25 04:33:47;;;;;;;1999.90;999.90;;;18.90;90.50;;;;;;5085071;28;20053;-72
2023/08/25 04:36:14;;;;;;;1999.90;999.90;;;18.80;90.80;;;;;;5087423;28;20028;-71
2023/08/25 04:38:39;;;;;;;1999.90;999.90;;;18.80;90.50;;;;;;5101281;28;20031;-71
2023/08/25 04:41:05;;;;;;;1999.90;999.90;;;18.80;90.60;;;;;;5109035;28;20062;-72
2023/08/25 04:43:31;;;;;;;1999.90;999.90;;;18.80;90.30;;;;;;5108017;28;20024;-71
2023/08/25 04:45:57;;;;;;;1999.90;999.90;;;18.80;90.30;;;;;;5102936;28;20043;-71
2023/08/25 04:48:22;;;;;;;1999.90;999.90;;;18.80;90.60;;;;;;5105380;28;20031;-71
2023/08/25 04:50:49;;;;;;;1999.90;999.90;;;18.80;90.40;;;;;;5093732;28;20036;-71
2023/08/25 04:53:14;;;;;;;1999.90;999.90;;;18.70;90.50;;;;;;5088593;28;20520;-71
2023/08/25 04:55:40;;;;;;;1999.90;999.90;;;18.80;90.10;;;;;;5087728;28;20055;-72
2023/08/25 04:58:06;;;;;;;1999.90;999.90;;;18.90;90.10;;;;;;5089463;28;20060;-72
2023/08/25 05:00:31;;;;;;;1999.90;999.90;;;18.90;90.00;;;;;;5088753;28;20044;-72
2023/08/25 05:02:57;;;;;;;1999.90;999.90;;;19.00;89.40;;;;;;5089082;28;20035;-72
2023/08/25 05:05:22;;;;;;;1999.90;999.90;;;19.00;88.60;;;;;;5086894;28;20028;-71
2023/08/25 05:07:48;;;;;;;1999.90;999.90;;;19.00;89.50;;;;;;5087347;28;20032;-71
2023/08/25 05:10:14;;;;;;;1999.90;999.90;;;19.00;89.20;;;;;;5088590;28;20044;-71
2023/08/25 05:12:40;;;;;;;1999.90;999.90;;;19.00;90.10;;;;;;5086675;28;20036;-72
2023/08/25 05:15:07;;;;;;;1999.90;999.90;;;18.90;89.20;;;;;;5089182;28;20031;-72
2023/08/25 05:17:32;;;;;;;1999.90;999.90;;;18.90;89.40;;;;;;5089340;28;20450;-72
2023/08/25 05:19:58;;;;;;;1999.90;999.90;;;18.90;89.90;;;;;;5086057;28;20125;-72
2023/08/25 05:22:23;;;;;;;1999.90;999.90;;;19.10;88.40;;;;;;5087638;28;20059;-71
2023/08/25 05:24:52;;;;;;;1999.90;999.90;;;19.10;88.80;;;;;;5087487;28;20505;-72
2023/08/25 05:27:17;;;;;;;1999.90;999.90;;;19.20;88.20;;;;;;5088703;28;20038;-71
2023/08/25 05:29:44;;;;;;;1999.90;999.90;;;19.30;88.30;;;;;;5086422;28;20036;-71
2023/08/25 05:32:10;;;;;;;1999.90;999.90;;;19.40;87.40;;;;;;5087886;28;20040;-72
2023/08/25 05:34:36;;;;;;;1999.90;999.90;;;19.60;86.90;;;;;;5081988;28;20547;-71
2023/08/25 05:37:02;;;;;;;1999.90;999.90;;;19.80;88.00;;;;;;5087641;28;20405;-71
2023/08/25 05:39:27;;;;;;;1999.90;999.90;;;19.90;86.70;;;;;;5086340;28;20085;-70
2023/08/25 05:41:53;;;;;;;1999.90;999.90;;;19.90;86.00;;;;;;5086874;28;20032;-71
2023/08/25 05:44:19;;;;;;;1999.90;999.90;;;20.00;86.00;;;;;;5086733;28;20033;-71
2023/08/25 05:46:44;;;;;;;1999.90;999.90;;;20.00;84.90;;;;;;5089245;28;20032;-71
2023/08/25 05:49:10;;;;;;;1999.90;999.90;;;20.10;85.50;;;;;;5091287;28;20034;-72
2023/08/25 05:51:36;;;;;;;1999.90;999.90;;;20.10;85.20;;;;;;5084926;28;20393;-72
2023/08/25 05:54:01;;;;;;;1999.90;999.90;;;20.10;85.30;;;;;;5105263;28;20048;-71
2023/08/25 05:56:27;;;;;;;1999.90;999.90;;;19.90;85.70;;;;;;5091949;28;20035;-71
2023/08/25 05:58:54;;;;;;;1999.90;999.90;;;19.80;87.70;;;;;;5089536;28;20020;-71
2023/08/25 06:01:20;;;;;;;1999.90;999.90;;;19.80;88.10;;;;;;5092287;28;20023;-71
2023/08/25 06:03:45;;;;;;;1999.90;999.90;;;19.60;88.50;;;;;;5091402;28;20445;-70
2023/08/25 06:06:12;;;;;;;1999.90;999.90;;;19.60;86.90;;;;;;5088212;28;20036;-70
2023/08/25 06:08:37;;;;;;;1999.90;999.90;;;19.70;86.70;;;;;;5085080;28;20032;-69
2023/08/25 06:11:04;;;;;;;1999.90;999.90;;;19.80;86.50;;;;;;5092154;28;20074;-69
2023/08/25 06:13:29;;;;;;;1999.90;999.90;;;19.80;86.10;;;;;;5091728;28;20043;-69
2023/08/25 06:15:55;;;;;;;1999.90;999.90;;;19.90;87.10;;;;;;5092789;28;20419;-69
2023/08/25 06:18:21;;;;;;;1999.90;999.90;;;19.90;85.30;;;;;;5092071;28;20042;-69
2023/08/25 06:20:50;;;;;;;1999.90;999.90;;;19.90;85.20;;;;;;5084136;28;20543;-70
2023/08/25 06:23:16;;;;;;;1999.90;999.90;;;19.70;85.80;;;;;;5092291;28;20036;-69
2023/08/25 06:25:43;;;;;;;1999.90;999.90;;;19.80;86.10;;;;;;5092074;28;20027;-71
2023/08/25 06:28:09;;;;;;;1999.90;999.90;;;19.80;86.00;;;;;;5087868;28;20089;-71
2023/08/25 06:30:35;;;;;;;1999.90;999.90;;;19.70;85.70;;;;;;5092109;28;20456;-71
2023/08/25 06:33:02;;;;;;;1999.90;999.90;;;19.90;85.80;;;;;;5086267;28;20056;-71
2023/08/25 06:35:27;;;;;;;1999.90;999.90;;;20.00;85.90;;;;;;5089255;28;20409;-71
2023/08/25 06:37:53;;;;;;;1999.90;999.90;;;20.20;85.10;;;;;;5089764;28;20119;-71
2023/08/25 06:40:19;;;;;;;1999.90;999.90;;;20.30;85.60;;;;;;5090437;28;20032;-71
2023/08/25 06:42:44;;;;;;;1999.90;999.90;;;20.50;83.40;;;;;;5072755;28;20028;-71
2023/08/25 06:45:11;;;;;;;1999.90;999.90;;;20.60;84.30;;;;;;5089445;28;20085;-71
2023/08/25 06:47:38;;;;;;;1999.90;999.90;;;20.90;83.90;;;;;;5086361;28;20039;-72
2023/08/25 06:50:05;;;;;;;1999.90;999.90;;;21.00;83.80;;;;;;5092988;28;20497;-68
2023/08/25 06:52:32;;;;;;;1999.90;999.90;;;21.30;81.90;;;;;;5091962;28;20489;-69
2023/08/25 06:54:58;;;;;;;1999.90;999.90;;;21.50;79.10;;;;;;5091209;28;20662;-69
2023/08/25 06:57:24;;;;;;;1999.90;999.90;;;21.70;77.80;;;;;;5090839;28;20144;-69
2023/08/25 06:59:50;;;;;;;1999.90;999.90;;;21.80;76.30;;;;;;5096806;28;20131;-69
2023/08/25 07:02:16;;;;;;;1999.90;999.90;;;21.70;77.30;;;;;;5093262;28;20040;-72
2023/08/25 07:04:42;;;;;;;1999.90;999.90;;;21.70;76.20;;;;;;5090763;28;20420;-69
2023/08/25 07:07:08;;;;;;;1999.90;999.90;;;21.60;75.10;;;;;;5086446;28;20036;-69
2023/08/25 07:09:35;;;;;;;1999.90;999.90;;;21.70;74.40;;;;;;5087522;28;20033;-69
2023/08/25 07:12:00;;;;;;;1999.90;999.90;;;21.70;75.90;;;;;;5089575;28;20032;-70
2023/08/25 07:14:29;;;;;;;1999.90;999.90;;;22.00;76.70;;;;;;5090514;28;20119;-70
2023/08/25 07:16:54;;;;;;;1999.90;999.90;;;22.00;74.00;;;;;;5084890;28;20033;-69
2023/08/25 07:19:20;;;;;;;1999.90;999.90;;;22.10;74.80;;;;;;5087997;28;20027;-69
2023/08/25 07:21:45;;;;;;;1999.90;999.90;;;22.10;74.80;;;;;;5087729;28;20016;-69
2023/08/25 07:24:11;;;;;;;1999.90;999.90;;;22.10;75.50;;;;;;5090935;28;20390;-70
2023/08/25 07:26:37;;;;;;;1999.90;999.90;;;21.80;76.70;;;;;;5087189;28;20036;-70
2023/08/25 07:29:02;;;;;;;1999.90;999.90;;;21.50;78.40;;;;;;5089943;28;20039;-70
2023/08/25 07:31:28;;;;;;;1999.90;999.90;;;21.10;80.50;;;;;;5087386;28;20088;-70
2023/08/25 07:33:54;;;;;;;1999.90;999.90;;;21.20;80.50;;;;;;5086358;28;20036;-70
2023/08/25 07:36:19;;;;;;;1999.90;999.90;;;21.40;78.70;;;;;;5086899;28;20107;-70
2023/08/25 07:38:45;;;;;;;1999.90;999.90;;;21.30;77.40;;;;;;5090505;28;20036;-70
2023/08/25 07:41:17;;;;;;;1999.90;999.90;;;21.20;78.80;;;;;;5089189;28;20098;-70
2023/08/25 07:43:43;;;;;;;1999.90;999.90;;;21.30;78.30;;;;;;5089531;28;20036;-69
2023/08/25 07:46:08;;;;;;;1999.90;999.90;;;21.30;78.50;;;;;;5082524;28;20042;-70
2023/08/25 07:48:34;;;;;;;1999.90;999.90;;;21.10;80.90;;;;;;5089625;28;20024;-70
2023/08/25 07:51:00;;;;;;;1999.90;999.90;;;20.90;80.10;;;;;;5088855;28;20032;-70
2023/08/25 07:53:25;;;;;;;1999.90;999.90;;;20.90;81.10;;;;;;5052784;28;20051;-72
2023/08/25 07:55:51;;;;;;;1999.90;999.90;;;20.40;84.40;;;;;;5088232;28;20042;-72
2023/08/25 07:58:19;;;;;;;1999.90;999.90;;;20.50;99.10;;;;;;5090536;28;20071;-72
2023/08/25 08:00:45;;;;;;;1999.90;999.90;;;20.00;99.90;;;;;;5082770;28;20028;-73
2023/08/25 08:03:11;;;;;;;1999.90;999.90;;;19.90;99.90;;;;;;5089539;28;20043;-73
2023/08/25 08:05:38;;;;;;;1999.90;999.90;;;20.00;97.40;;;;;;5106548;28;20437;-73
2023/08/25 08:08:04;;;;;;;1999.90;999.90;;;19.60;96.60;;;;;;5088695;28;20047;-73
2023/08/25 08:10:30;;;;;;;1999.90;999.90;;;19.50;96.80;;;;;;5086238;28;20032;-72
2023/08/25 08:12:56;;;;;;;1999.90;999.90;;;19.50;97.60;;;;;;5089557;28;20039;-72
2023/08/25 08:15:22;;;;;;;1999.90;999.90;;;19.70;98.70;;;;;;5087255;28;20040;-73
2023/08/25 08:17:47;;;;;;;1999.90;999.90;;;19.70;99.10;;;;;;5088417;28;20086;-73
2023/08/25 08:20:13;;;;;;;1999.90;999.90;;;20.30;99.20;;;;;;5079768;28;20126;-72
2023/08/25 08:22:42;;;;;;;1999.90;999.90;;;20.40;99.70;;;;;;5088752;28;20024;-72
2023/08/25 08:25:10;;;;;;;1999.90;999.90;;;20.30;99.90;;;;;;5092969;28;20043;-72
2023/08/25 08:27:37;;;;;;;1999.90;999.90;;;20.50;99.70;;;;;;5090575;28;20031;-73
2023/08/25 08:30:03;;;;;;;1999.90;999.90;;;20.90;99.80;;;;;;5087777;28;20047;-72
2023/08/25 08:32:29;;;;;;;1999.90;999.90;;;20.60;94.90;;;;;;5089700;28;20051;-71
2023/08/25 08:34:56;;;;;;;1999.90;999.90;;;20.50;95.40;;;;;;5086571;28;20056;-72
2023/08/25 08:37:21;;;;;;;1999.90;999.90;;;20.70;96.20;;;;;;5086186;28;20044;-73
2023/08/25 08:39:47;;;;;;;1999.90;999.90;;;20.50;94.60;;;;;;5089353;28;20036;-72
2023/08/25 08:42:14;;;;;;;1999.90;999.90;;;20.60;96.70;;;;;;5087137;28;20111;-72
2023/08/25 08:44:46;;;;;;;1999.90;999.90;;;20.50;94.30;;;;;;5086207;28;20073;-72
2023/08/25 08:47:12;;;;;;;1999.90;999.90;;;20.60;93.30;;;;;;5085598;28;20048;-72
2023/08/25 08:49:39;;;;;;;1999.90;999.90;;;20.90;96.20;;;;;;5088702;28;20440;-71
2023/08/25 08:52:06;;;;;;;1999.90;999.90;;;20.80;94.20;;;;;;5090104;28;20059;-72
2023/08/25 08:54:35;;;;;;;1999.90;999.90;;;20.60;97.10;;;;;;5085585;28;20056;-70
2023/08/25 08:57:01;;;;;;;1999.90;999.90;;;21.00;96.50;;;;;;5089777;28;20059;-70
2023/08/25 08:59:26;;;;;;;1999.90;999.90;;;20.60;91.70;;;;;;5077535;28;20070;-70
2023/08/25 09:01:54;;;;;;;1999.90;999.90;;;20.60;91.30;;;;;;5086626;28;20044;-70
2023/08/25 09:04:22;;;;;;;1999.90;999.90;;;20.60;95.30;;;;;;5086478;28;20020;-70
2023/08/25 09:06:51;;;;;;;1999.90;999.90;;;20.70;91.20;;;;;;5088388;28;20107;-69
2023/08/25 09:09:19;;;;;;;1999.90;999.90;;;20.50;92.60;;;;;;5088440;28;20028;-69
2023/08/25 09:11:48;;;;;;;1999.90;999.90;;;20.40;92.50;;;;;;5088264;28;20335;-70
2023/08/25 09:14:25;;;;;;;1999.90;999.90;;;20.10;83.00;;;;;;5087781;28;20111;-70
2023/08/25 09:16:55;;;;;;;1999.90;999.90;;;21.10;92.10;;;;;;5085619;28;20020;-70
2023/08/25 09:19:21;;;;;;;1999.90;999.90;;;21.70;93.30;;;;;;5089527;28;20028;-70
2023/08/25 09:21:47;;;;;;;1999.90;999.90;;;21.80;90.70;;;;;;5089975;28;20054;-69
2023/08/25 09:24:18;;;;;;;1999.90;999.90;;;21.90;82.30;;;;;;5093381;28;20549;-70
2023/08/25 09:26:44;;;;;;;1999.90;999.90;;;22.20;75.10;;;;;;5084939;28;20035;-70
2023/08/25 09:29:10;;;;;;;1999.90;999.90;;;22.50;79.20;;;;;;5089343;28;20425;-69
2023/08/25 09:31:37;;;;;;;1999.90;999.90;;;22.80;78.90;;;;;;5090168;28;20043;-69
2023/08/25 09:34:13;;;;;;;1999.90;999.90;;;23.20;78.40;;;;;;5093126;28;20386;-70
2023/08/25 09:36:53;;;;;;;1999.90;999.90;;;23.10;72.50;;;;;;5092695;28;20036;-71
2023/08/25 09:39:20;;;;;;;1999.90;999.90;;;23.10;70.40;;;;;;5085048;28;20029;-70
2023/08/25 09:41:46;;;;;;;1999.90;999.90;;;23.70;70.60;;;;;;5087147;28;20077;-70
2023/08/25 09:44:13;;;;;;;1999.90;999.90;;;24.20;72.40;;;;;;5086595;28;20070;-77
2023/08/25 09:46:38;;;;;;;1999.90;999.90;;;24.40;71.50;;;;;;5076504;28;20072;-78
2023/08/25 09:49:06;;;;;;;1999.90;999.90;;;24.70;71.70;;;;;;5080577;28;20056;-71
2023/08/25 09:51:47;;;;;;;1999.90;999.90;;;24.90;68.20;;;;;;5082474;28;20032;-70
2023/08/25 09:54:19;;;;;;;1999.90;999.90;;;24.80;67.80;;;;;;5082085;28;20080;-70
2023/08/25 09:56:47;;;;;;;1999.90;999.90;;;24.50;67.20;;;;;;5081645;28;20031;-70
2023/08/25 09:59:14;;;;;;;1999.90;999.90;;;24.00;71.40;;;;;;5083636;28;20032;-71
2023/08/25 10:01:44;;;;;;;1999.90;999.90;;;23.80;67.80;;;;;;5085908;28;20067;-70
2023/08/25 10:04:10;;;;;;;;;;;23.90;69.40;;;;;;5085929;28;20028;-70
2023/08/25 10:06:37;;;;;;;1999.90;999.90;;;23.90;68.80;;;;;;5092097;28;20265;-70
2023/08/25 10:09:05;;;;;;;1999.90;999.90;;;23.70;67.90;;;;;;5088201;28;20126;-70
2023/08/25 10:11:40;;;;;;;1999.90;999.90;;;23.80;69.10;;;;;;5093636;28;20417;-70
2023/08/25 10:14:11;;;;;;;1999.90;999.90;;;23.80;66.90;;;;;;5090077;28;20054;-70
2023/08/25 10:16:45;;;;;;;1999.90;999.90;;;23.80;70.00;;;;;;5090270;28;20498;-71
2023/08/25 10:19:14;;;;;;;1999.90;999.90;;;23.80;67.40;;;;;;5086833;28;20035;-71
2023/08/25 10:21:45;;;;;;;1999.90;999.90;;;23.90;69.10;;;;;;5091483;28;20028;-71
2023/08/25 10:24:14;;;;;;;1999.90;999.90;;;23.90;65.70;;;;;;5090137;28;20038;-71
2023/08/25 10:26:42;;;;;;;1999.90;999.90;;;24.10;65.70;;;;;;5090468;28;20052;-71
2023/08/25 10:29:08;;;;;;;1999.90;999.90;;;24.20;66.60;;;;;;5091628;28;20028;-71
2023/08/25 10:31:34;;;;;;;1999.90;999.90;;;24.30;68.50;;;;;;5091090;28;20032;-70
2023/08/25 10:34:01;;;;;;;1999.90;999.90;;;24.20;65.60;;;;;;5088811;28;20044;-70
2023/08/25 10:36:26;;;;;;;1999.90;999.90;;;24.70;69.40;;;;;;5098567;28;20028;-71
2023/08/25 10:38:55;;;;;;;1999.90;999.90;;;25.00;67.60;;;;;;5108618;28;20042;-70
2023/08/25 10:41:23;;;;;;;1999.90;999.90;;;25.60;63.50;;;;;;5097045;28;20058;-72
2023/08/25 10:43:53;;;;;;;1999.90;999.90;;;25.00;61.80;;;;;;5105127;28;20096;-70
2023/08/25 10:46:20;;;;;;;1999.90;999.90;;;25.20;65.90;;;;;;5090013;28;20033;-71
2023/08/25 10:48:48;;;;;;;1999.90;999.90;;;25.40;63.70;;;;;;5091735;28;20067;-71
2023/08/25 10:51:19;;;;;;;1999.90;999.90;;;25.10;65.10;;;;;;5084355;28;20490;-71
2023/08/25 10:53:46;;;;;;;1999.90;999.90;;;25.20;62.30;;;;;;5087234;28;20537;-71
2023/08/25 10:56:22;;;;;;;1999.90;999.90;;;25.40;61.30;;;;;;5088190;28;20042;-71
2023/08/25 10:59:04;;;;;;;1999.90;999.90;;;25.00;62.50;;;;;;5090843;28;20035;-71
2023/08/25 11:01:37;;;;;;;1999.90;999.90;;;24.90;62.30;;;;;;5084208;28;20071;-71
2023/08/25 11:04:08;;;;;;;1999.90;999.90;;;24.90;63.80;;;;;;5089490;28;20031;-71
2023/08/25 11:06:47;;;;;;;1999.90;999.90;;;24.90;60.80;;;;;;5090497;28;20455;-71
2023/08/25 11:09:18;;;;;;;1999.90;999.90;;;25.20;63.70;;;;;;5087030;28;20016;-71
2023/08/25 11:11:46;;;;;;;1999.90;999.90;;;25.60;61.00;;;;;;5090613;28;20030;-71
2023/08/25 11:14:12;;;;;;;1999.90;999.90;;;26.10;58.60;;;;;;5089484;28;20024;-71
2023/08/25 11:16:42;;;;;;;1999.90;999.90;;;26.30;59.80;;;;;;5088466;28;20031;-71
2023/08/25 11:19:13;;;;;;;1999.90;999.90;;;26.10;56.40;;;;;;5090594;28;20046;-71
2023/08/25 11:21:39;;;;;;;1999.90;999.90;;;26.10;58.60;;;;;;5089718;28;20335;-71
2023/08/25 11:24:05;;;;;;;1999.90;999.90;;;26.20;59.10;;;;;;5093381;28;20039;-71
2023/08/25 11:26:34;;;;;;;1999.90;999.90;;;26.00;59.50;;;;;;5091926;28;20032;-71
2023/08/25 11:29:01;;;;;;;1999.90;999.90;;;26.30;60.20;;;;;;5088390;28;20058;-71
2023/08/25 11:31:27;;;;;;;1999.90;999.90;;;26.60;56.80;;;;;;5092217;28;20610;-71
2023/08/25 11:33:54;;;;;;;1999.90;999.90;;;26.30;57.40;;;;;;5090761;28;20053;-71
2023/08/25 11:36:24;;;;;;;1999.90;999.90;;;26.10;58.10;;;;;;5094591;28;20046;-71
2023/08/25 11:38:50;;;;;;;;;;;25.90;61.10;;;;;;5091034;28;20063;-71
2023/08/25 11:41:17;;;;;;;1999.90;999.90;;;26.10;58.30;;;;;;5086713;28;19919;-71
2023/08/25 11:43:45;;;;;;;1999.90;999.90;;;26.00;58.80;;;;;;5091646;28;20034;-70
2023/08/25 11:46:12;;;;;;;1999.90;999.90;;;25.90;59.20;;;;;;5088041;28;20118;-71
2023/08/25 11:48:38;;;;;;;1999.90;999.90;;;26.00;60.00;;;;;;5092995;28;20035;-72
2023/08/25 11:51:04;;;;;;;1999.90;999.90;;;26.10;58.70;;;;;;5090395;28;20039;-71
2023/08/25 11:53:31;;;;;;;1999.90;999.90;;;26.20;60.60;;;;;;5086292;28;20040;-71
2023/08/25 11:56:05;;;;;;;1999.90;999.90;;;26.50;59.70;;;;;;5089556;28;20032;-72
2023/08/25 11:58:35;;;;;;;1999.90;999.90;;;26.30;58.10;;;;;;5092436;28;20070;-72
2023/08/25 12:01:11;;;;;;;1999.90;999.90;;;26.10;58.00;;;;;;5089604;28;20036;-70